createdAt,value
2019-03-12T00:00:55.171Z,67.16
2019-03-12T00:15:53.673Z,68.41
2019-03-12T00:30:53.519Z,69.32
2019-03-12T00:45:51.514Z,70.70
2019-03-12T01:00:51.355Z,70.89
2019-03-12T01:15:53.920Z,72.38
2019-03-12T01:30:53.717Z,71.94
2019-03-12T01:45:50.685Z,71.46
2019-03-12T02:00:50.639Z,71.06
2019-03-12T02:15:50.964Z,71.36
2019-03-12T02:30:51.109Z,71.25
2019-03-12T02:45:51.913Z,71.13
2019-03-12T03:00:52.079Z,71.40
2019-03-12T03:15:51.285Z,71.90
2019-03-12T03:30:53.123Z,71.69
2019-03-12T03:45:51.157Z,70.71
2019-03-12T04:00:52.111Z,70.94
2019-03-12T04:15:51.415Z,70.26
2019-03-12T04:30:51.409Z,70.58
2019-03-12T04:45:51.337Z,71.23
2019-03-12T05:00:51.185Z,71.46
2019-03-12T05:15:51.512Z,71.65
2019-03-12T05:30:51.622Z,71.03
2019-03-12T05:45:51.557Z,71.67
2019-03-12T06:00:51.375Z,73.06
2019-03-12T06:15:53.218Z,71.73
2019-03-12T07:01:00.683Z,73.03
2019-03-12T07:15:55.079Z,73.58
2019-03-12T07:45:54.978Z,72.74
2019-03-12T08:15:56.224Z,72.01
2019-03-12T08:45:58.651Z,72.10
2019-03-12T09:15:57.447Z,71.03
2019-03-12T10:15:56.858Z,67.20
2019-03-12T11:00:51.524Z,65.05
2019-03-12T11:15:50.896Z,64.23
2019-03-12T11:30:51.845Z,64.77
2019-03-12T11:45:51.748Z,66.27
2019-03-12T12:15:51.148Z,65.46
2019-03-12T12:30:52.276Z,66.36
2019-03-12T12:45:50.889Z,66.55
2019-03-12T13:00:50.891Z,66.33
2019-03-12T13:15:51.257Z,67.02
2019-03-12T13:30:51.316Z,66.85
2019-03-12T13:45:51.149Z,67.32
2019-03-12T14:00:50.857Z,69.70
2019-03-12T14:15:53.636Z,71.76
2019-03-12T14:30:51.428Z,73.55
2019-03-12T14:45:51.389Z,72.99
2019-03-12T15:00:51.204Z,70.83
2019-03-12T15:15:52.375Z,68.77
2019-03-12T15:30:51.780Z,68.10
2019-03-12T15:45:51.725Z,67.56
2019-03-12T16:00:51.616Z,67.50
2019-03-12T16:15:50.962Z,68.04
2019-03-12T16:30:50.962Z,69.12
2019-03-12T16:45:50.912Z,71.31
2019-03-12T17:00:54.195Z,71.58
2019-03-12T17:15:54.711Z,72.07
2019-03-12T17:30:53.232Z,72.02
2019-03-12T17:45:51.052Z,72.72
2019-03-12T18:00:51.138Z,73.37
2019-03-12T18:15:51.600Z,73.49
2019-03-12T18:30:51.678Z,73.87
2019-03-12T19:00:51.413Z,75.91
2019-03-12T19:15:51.866Z,76.54
2019-03-12T19:30:51.649Z,75.72
2019-03-12T19:45:51.617Z,74.25
2019-03-12T20:00:57.963Z,75.09
2019-03-12T21:30:52.851Z,74.55
2019-03-12T21:45:53.288Z,74.70
2019-03-12T22:00:53.575Z,73.93
2019-03-12T22:15:53.586Z,73.80
2019-03-12T22:30:53.454Z,73.84
2019-03-12T22:45:53.582Z,72.45
2019-03-12T23:00:51.512Z,72.16
2019-03-12T23:15:50.733Z,72.74
2019-03-12T23:30:52.716Z,72.60
2019-03-12T23:45:53.564Z,73.47
